Time;durP1;ratioP1;P1;durP2;ratioP2;P2;SDS_P1;SDS_P2;PMS_P1;PMS_P2;Temp;Humidity;BMP_temperature;BMP_pressure;BME280_temperature;BME280_humidity;BME280_pressure;Samples;Min_cycle;Max_cycle;Signal;HPM_P1;HPM_P2
2023/11/27 00:00:44;;;;;;;2.33;1.53;;;;;;;-0.48;100.00;100168.53;5031945;28;20037;-67
2023/11/27 00:03:10;;;;;;;3.40;2.27;;;;;;;-0.98;100.00;100068.47;5031606;28;20476;-67
2023/11/27 00:05:35;;;;;;;2.67;1.50;;;;;;;-0.41;100.00;100180.00;5030965;28;20068;-70
2023/11/27 00:08:01;;;;;;;3.53;2.33;;;;;;;-0.41;100.00;100175.84;5031960;28;20061;-67
2023/11/27 00:10:26;;;;;;;2.70;1.90;;;;;;;-0.41;100.00;100175.84;5032086;28;20033;-70
2023/11/27 00:12:52;;;;;;;1.63;1.40;;;;;;;-0.54;100.00;100157.91;5031688;28;20030;-69
2023/11/27 00:15:18;;;;;;;1.70;1.20;;;;;;;-0.71;100.00;100123.66;5031297;28;20026;-68
2023/11/27 00:17:43;;;;;;;2.60;2.00;;;;;;;-0.41;100.00;100178.38;5031265;28;20108;-70
2023/11/27 00:20:09;;;;;;;2.97;1.97;;;;;;;-0.37;100.00;100177.81;5030914;28;20091;-72
2023/11/27 00:22:36;;;;;;;2.17;1.53;;;;;;;-0.39;100.00;100170.88;5028081;28;20537;-68
2023/11/27 00:25:01;;;;;;;2.43;1.87;;;;;;;-0.42;100.00;100160.50;5028866;28;20084;-69
2023/11/27 00:27:27;;;;;;;2.93;2.00;;;;;;;-0.39;100.00;100178.47;5028857;28;20072;-69
2023/11/27 00:29:53;;;;;;;3.37;2.10;;;;;;;-0.88;100.00;100089.44;5028544;28;20037;-68
2023/11/27 00:32:18;;;;;;;2.40;1.60;;;;;;;-0.46;100.00;100176.25;5028861;28;20099;-67
2023/11/27 00:34:44;;;;;;;2.57;1.77;;;;;;;-0.44;100.00;100197.53;5028628;28;20091;-68
2023/11/27 00:37:09;;;;;;;3.43;2.20;;;;;;;-0.52;100.00;100195.28;5028692;28;20034;-69
2023/11/27 00:39:35;;;;;;;3.80;2.33;;;;;;;-0.46;100.00;100209.22;5026707;28;20076;-67
2023/11/27 00:42:00;;;;;;;3.00;1.90;;;;;;;-0.50;100.00;100218.22;5028688;28;20060;-67
2023/11/27 00:44:26;;;;;;;2.53;1.70;;;;;;;-0.55;100.00;100207.75;5028374;28;20490;-69
2023/11/27 00:46:51;;;;;;;3.47;2.10;;;;;;;-0.59;100.00;100213.34;5028236;28;20121;-69
2023/11/27 00:49:18;;;;;;;2.67;1.73;;;;;;;-0.62;100.00;100219.81;5035794;28;20045;-68
2023/11/27 00:51:44;;;;;;;4.13;2.50;;;;;;;-1.23;100.00;100110.41;5036203;28;20036;-67
2023/11/27 00:54:09;;;;;;;4.47;2.03;;;;;;;-0.84;100.00;100183.53;5029989;28;20038;-73
2023/11/27 00:56:36;;;;;;;5.77;2.20;;;;;;;-0.67;100.00;100222.03;5017412;28;20029;-70
2023/11/27 00:59:01;;;;;;;2.93;1.67;;;;;;;-0.64;100.00;100218.84;5030792;28;20033;-68
2023/11/27 01:01:27;;;;;;;2.43;1.23;;;;;;;-0.59;100.00;100220.94;5028945;28;20495;-70
2023/11/27 01:03:52;;;;;;;3.87;2.03;;;;;;;-0.57;100.00;100224.50;5030478;28;20037;-71
2023/11/27 01:06:18;;;;;;;1.40;1.30;;;;;;;-0.82;100.00;100187.09;5030224;28;20053;-69
2023/11/27 01:08:43;;;;;;;2.27;1.67;;;;;;;-0.54;100.00;100231.44;5044672;28;20575;-68
2023/11/27 01:11:09;;;;;;;3.90;2.17;;;;;;;-0.51;100.00;100232.56;5027537;28;20040;-68
2023/11/27 01:13:35;;;;;;;5.13;1.80;;;;;;;-1.20;100.00;100110.63;5030259;28;20106;-66
2023/11/27 01:16:01;;;;;;;2.63;1.87;;;;;;;-0.56;100.00;100225.38;5024898;28;20030;-66
2023/11/27 01:18:27;;;;;;;1.50;1.40;;;;;;;-0.75;100.00;100208.72;5010187;28;20091;-67
2023/11/27 01:20:53;;;;;;;2.57;1.50;;;;;;;-0.64;100.00;100234.91;5030174;28;20022;-67
2023/11/27 01:23:19;;;;;;;2.57;2.00;;;;;;;-0.81;100.00;100213.31;5030403;28;20104;-70
2023/11/27 01:25:44;;;;;;;2.57;1.43;;;;;;;-0.70;100.00;100221.75;5030033;28;20029;-70
2023/11/27 01:28:10;;;;;;;2.77;1.90;;;;;;;-0.63;100.00;100248.50;5029913;28;20025;-68
2023/11/27 01:30:36;;;;;;;2.23;1.07;;;;;;;-1.33;100.00;100139.19;5027587;28;20095;-73
2023/11/27 01:33:04;;;;;;;1.40;1.30;;;;;;;-0.69;100.00;100246.34;5029777;28;20511;-67
2023/11/27 01:35:29;;;;;;;1.90;1.50;;;;;;;-0.73;100.00;100242.69;5029945;28;20025;-67
2023/11/27 01:37:55;;;;;;;1.40;1.10;;;;;;;-0.75;100.00;100245.88;5029945;28;20451;-68
2023/11/27 01:40:22;;;;;;;3.17;2.03;;;;;;;-0.77;100.00;100234.72;5029999;28;20072;-68
2023/11/27 01:42:47;;;;;;;5.93;2.03;;;;;;;-1.35;100.00;100136.53;5030125;28;20369;-68
2023/11/27 01:45:13;;;;;;;2.60;1.70;;;;;;;-0.76;100.00;100237.41;5029800;28;20052;-68
2023/11/27 01:47:38;;;;;;;3.13;1.40;;;;;;;-0.83;100.00;100225.88;5029590;28;20036;-66
2023/11/27 01:50:07;;;;;;;2.43;1.43;;;;;;;-1.18;100.00;100154.72;5030030;28;20017;-68
2023/11/27 01:52:35;;;;;;;2.13;1.20;;;;;;;-0.71;100.00;100235.19;5029737;28;20451;-68
2023/11/27 01:55:01;;;;;;;2.70;2.10;;;;;;;-0.70;100.00;100244.56;5029976;28;20041;-68
2023/11/27 01:57:27;;;;;;;1.10;1.00;;;;;;;-0.75;100.00;100248.41;5024467;28;20037;-70
2023/11/27 01:59:55;;;;;;;2.73;1.37;;;;;;;-0.80;100.00;100226.88;5029507;28;20104;-72
2023/11/27 02:02:21;;;;;;;2.13;1.73;;;;;;;-0.75;100.00;100248.41;5016408;28;20042;-67
2023/11/27 02:04:46;;;;;;;1.23;1.00;;;;;;;-0.74;100.00;100251.06;5027450;28;20053;-67
2023/11/27 02:07:13;;;;;;;1.03;0.97;;;;;;;-0.95;100.00;100213.91;5029832;28;21020;-68
2023/11/27 02:09:39;;;;;;;3.50;1.50;;;;;;;-0.83;100.00;100246.16;5029034;28;20026;-70
2023/11/27 02:12:05;;;;;;;1.87;1.40;;;;;;;-0.77;100.00;100255.00;5029921;28;20025;-74
2023/11/27 02:14:30;;;;;;;0.73;0.70;;;;;;;-0.80;100.00;100260.72;5029703;28;20151;-70
2023/11/27 02:16:57;;;;;;;1.93;1.30;;;;;;;-0.81;100.00;100248.78;5030080;28;20108;-69
2023/11/27 02:19:22;;;;;;;1.73;1.07;;;;;;;-1.04;100.00;100209.00;5030285;28;20028;-70
2023/11/27 02:21:49;;;;;;;1.13;1.03;;;;;;;-0.72;100.00;100266.41;5030014;28;20395;-69
2023/11/27 02:24:15;;;;;;;2.70;1.80;;;;;;;-0.80;100.00;100268.31;5029792;28;20411;-70
2023/11/27 02:26:41;;;;;;;4.13;1.90;;;;;;;-0.80;100.00;100254.78;5029727;28;20108;-68
2023/11/27 02:29:06;;;;;;;2.43;1.33;;;;;;;-0.81;100.00;100279.22;5029928;28;20157;-69
2023/11/27 02:31:32;;;;;;;2.43;1.67;;;;;;;-0.86;100.00;100271.28;5029691;28;20029;-70
2023/11/27 02:33:57;;;;;;;2.53;1.43;;;;;;;-0.88;100.00;100266.84;5030066;28;20025;-69
2023/11/27 02:36:27;;;;;;;3.13;2.10;;;;;;;-0.82;100.00;100270.75;5029842;28;20053;-70
2023/11/27 02:38:53;;;;;;;1.55;1.35;;;;;;;-1.48;100.00;100164.19;5029428;28;20029;-69
2023/11/27 02:41:19;;;;;;;1.40;1.10;;;;;;;-0.91;100.00;100261.53;5029746;28;20033;-69
2023/11/27 02:43:45;;;;;;;2.60;1.50;;;;;;;-0.91;100.00;100264.06;5029877;28;20034;-67
2023/11/27 02:46:12;;;;;;;1.13;1.00;;;;;;;-0.91;100.00;100266.59;5031317;28;20577;-69
2023/11/27 02:48:38;;;;;;;1.37;1.20;;;;;;;-0.98;100.00;100271.16;5033348;28;20040;-69
2023/11/27 02:51:05;;;;;;;1.63;1.20;;;;;;;-0.98;100.00;100273.69;5033293;28;20049;-69
2023/11/27 02:53:32;;;;;;;1.73;1.37;;;;;;;-1.11;100.00;100247.28;5030534;28;20424;-68
2023/11/27 02:55:58;;;;;;;1.20;1.07;;;;;;;-1.07;100.00;100265.38;5033288;28;20385;-69
2023/11/27 02:58:24;;;;;;;2.10;1.40;;;;;;;-2.06;100.00;100109.78;5033148;28;20029;-70
2023/11/27 03:00:49;;;;;;;14.30;1.47;;;;;;;-1.08;100.00;100275.41;5047423;28;20474;-68
2023/11/27 03:03:15;;;;;;;2.90;1.30;;;;;;;-1.18;100.00;100279.72;5033222;28;20029;-70
2023/11/27 03:05:40;;;;;;;2.83;1.80;;;;;;;-1.67;100.00;100195.63;5032819;28;20092;-69
2023/11/27 03:08:06;;;;;;;1.63;1.43;;;;;;;-1.06;100.00;100301.72;5033103;28;20371;-72
2023/11/27 03:10:31;;;;;;;1.80;1.23;;;;;;;-1.03;100.00;100302.00;5032745;28;20064;-69
2023/11/27 03:12:57;;;;;;;3.10;1.50;;;;;;;-1.10;100.00;100309.84;5032544;28;20029;-70
2023/11/27 03:15:22;;;;;;;3.00;1.73;;;;;;;-1.28;100.00;100289.88;5032758;28;20464;-69
2023/11/27 03:17:48;;;;;;;3.93;2.00;;;;;;;-1.20;100.00;100319.22;5032946;28;20034;-72
2023/11/27 03:20:13;;;;;;;1.73;1.30;;;;;;;-1.22;100.00;100315.69;5032704;28;20476;-70
2023/11/27 03:22:40;;;;;;;1.60;1.23;;;;;;;-1.15;100.00;100317.06;5032901;28;20475;-69
2023/11/27 03:25:05;;;;;;;3.13;1.60;;;;;;;-1.12;100.00;100326.56;5032617;28;20029;-68
2023/11/27 03:27:32;;;;;;;2.93;1.43;;;;;;;-1.11;100.00;100330.88;5032299;28;20091;-70
2023/11/27 03:29:57;;;;;;;3.03;1.33;;;;;;;-1.08;100.00;100333.66;5032577;28;20403;-69
2023/11/27 03:32:23;;;;;;;3.23;1.97;;;;;;;-1.05;100.00;100344.03;5032371;28;20034;-69
2023/11/27 03:34:48;;;;;;;3.53;1.87;;;;;;;-1.07;100.00;100332.88;5032583;28;20029;-70
2023/11/27 03:37:14;;;;;;;3.47;2.33;;;;;;;-1.11;100.00;100339.34;5032501;28;20568;-69
2023/11/27 03:39:39;;;;;;;3.70;2.37;;;;;;;-1.12;100.00;100327.47;5032452;28;20025;-69
2023/11/27 03:42:05;;;;;;;2.33;1.70;;;;;;;-1.17;100.00;100334.69;5031910;28;20045;-69
2023/11/27 03:44:31;;;;;;;3.57;1.50;;;;;;;-1.34;100.00;100312.16;5032355;28;20025;-69
2023/11/27 03:46:56;;;;;;;1.70;1.43;;;;;;;-1.33;100.00;100314.81;5032130;28;20036;-69
2023/11/27 03:49:23;;;;;;;3.50;2.00;;;;;;;-1.23;100.00;100331.66;5032208;28;20060;-69
2023/11/27 03:51:48;;;;;;;2.43;1.50;;;;;;;-1.22;100.00;100341.03;5032045;28;20072;-69
2023/11/27 03:54:14;;;;;;;2.77;1.90;;;;;;;-1.75;100.00;100251.44;5032314;28;20033;-68
2023/11/27 03:56:40;;;;;;;3.97;1.97;;;;;;;-1.27;100.00;100342.31;5031754;28;20072;-69
2023/11/27 03:59:06;;;;;;;2.80;2.10;;;;;;;-1.88;100.00;100245.34;5031903;28;20049;-75
2023/11/27 04:01:32;;;;;;;3.50;1.80;;;;;;;-1.35;100.00;100343.31;5031370;28;20052;-70
2023/11/27 04:03:59;;;;;;;2.53;1.50;;;;;;;-1.33;100.00;100352.81;5031930;28;20055;-69
2023/11/27 04:06:29;;;;;;;2.87;1.80;;;;;;;-1.33;100.00;100357.00;5031971;28;20053;-68
2023/11/27 04:08:55;;;;;;;2.80;1.83;;;;;;;-1.32;100.00;100372.31;5032010;28;20036;-68
2023/11/27 04:11:20;;;;;;;3.60;1.97;;;;;;;-1.27;100.00;100362.56;5031281;28;20037;-68
2023/11/27 04:13:46;;;;;;;6.87;2.93;;;;;;;-1.24;100.00;100357.72;5031897;28;20033;-68
2023/11/27 04:16:11;;;;;;;5.27;1.93;;;;;;;-1.40;100.00;100352.19;5031641;28;20109;-68
2023/11/27 04:18:37;;;;;;;5.10;2.77;;;;;;;-1.31;100.00;100363.03;5031625;28;20514;-68
2023/11/27 04:21:03;;;;;;;3.97;2.20;;;;;;;-1.35;100.00;100343.31;5031574;28;20083;-68
2023/11/27 04:23:31;;;;;;;4.50;2.50;;;;;;;-1.38;100.00;100349.00;5031653;28;20038;-69
2023/11/27 04:25:56;;;;;;;4.67;2.43;;;;;;;-1.28;100.00;100375.06;5031115;28;20026;-69
2023/11/27 04:28:22;;;;;;;2.13;1.93;;;;;;;-1.71;100.00;100294.81;5031585;28;20079;-68
2023/11/27 04:30:47;;;;;;;3.13;1.90;;;;;;;-1.38;100.00;100360.78;5030298;28;20484;-69
2023/11/27 04:33:18;;;;;;;3.77;2.10;;;;;;;-1.28;100.00;100381.06;5031455;28;20029;-68
2023/11/27 04:35:45;;;;;;;3.07;2.17;;;;;;;-1.22;100.00;100381.56;5031058;28;20483;-69
2023/11/27 04:38:11;;;;;;;3.00;2.20;;;;;;;-1.12;100.00;100390.81;5030921;28;20029;-70
2023/11/27 04:40:37;;;;;;;4.50;2.53;;;;;;;-1.15;100.00;100386.38;5031237;28;20120;-69
2023/11/27 04:43:03;;;;;;;4.27;2.30;;;;;;;-1.18;100.00;100377.63;5031241;28;20108;-69
2023/11/27 04:45:28;;;;;;;3.90;2.20;;;;;;;-2.16;100.00;100225.34;5031010;28;20463;-73
2023/11/27 04:47:54;;;;;;;4.97;2.33;;;;;;;-1.87;100.00;100295.22;5031130;28;20052;-72
2023/11/27 04:50:21;;;;;;;4.50;2.47;;;;;;;-1.39;100.00;100397.00;5030805;28;20025;-69
2023/11/27 04:52:46;;;;;;;3.27;2.20;;;;;;;-1.57;100.00;100386.22;5031029;28;20029;-70
2023/11/27 04:55:12;;;;;;;2.77;1.40;;;;;;;-1.44;100.00;100400.81;5031062;28;20100;-72
2023/11/27 04:57:39;;;;;;;3.50;1.90;;;;;;;-1.43;100.00;100405.09;5030790;28;20029;-68
2023/11/27 05:00:06;;;;;;;3.07;1.80;;;;;;;-1.50;100.00;100381.78;5030823;28;20079;-68
2023/11/27 05:02:32;;;;;;;4.00;2.03;;;;;;;-1.36;100.00;100402.31;5031028;28;20037;-70
2023/11/27 05:04:57;;;;;;;3.67;2.20;;;;;;;-1.42;100.00;100407.75;5030849;28;20025;-73
2023/11/27 05:07:22;;;;;;;3.87;2.10;;;;;;;-1.69;100.00;100381.91;5029185;28;20053;-70
2023/11/27 05:09:48;;;;;;;4.93;1.90;;;;;;;-1.50;100.00;100419.75;5030206;28;20071;-67
2023/11/27 05:12:14;;;;;;;3.00;2.00;;;;;;;-1.58;100.00;100415.72;5047523;28;20131;-68
2023/11/27 05:14:41;;;;;;;3.53;1.93;;;;;;;-2.12;100.00;100327.66;5048121;28;20098;-70
2023/11/27 05:17:08;;;;;;;2.97;2.00;;;;;;;-1.52;100.00;100433.03;5031516;28;20103;-69
2023/11/27 05:19:35;;;;;;;3.00;2.13;;;;;;;-1.63;100.00;100427.09;5048242;28;20029;-69
2023/11/27 05:22:02;;;;;;;2.67;1.90;;;;;;;-1.59;100.00;100429.13;5047715;28;20087;-66
2023/11/27 05:24:27;;;;;;;5.20;1.87;;;;;;;-1.68;100.00;100408.13;5031136;28;20051;-70
2023/11/27 05:26:53;;;;;;;8.40;2.40;;;;;;;-1.53;100.00;100434.72;5043032;28;20123;-69
2023/11/27 05:29:20;;;;;;;1.70;1.33;;;;;;;-1.62;100.00;100431.38;5047842;28;20462;-70
2023/11/27 05:31:46;;;;;;;3.00;1.83;;;;;;;-1.59;100.00;100441.78;5047607;28;20049;-68
2023/11/27 05:34:11;;;;;;;2.87;1.83;;;;;;;-1.58;100.00;100443.56;5047838;28;20032;-69
2023/11/27 05:36:37;;;;;;;3.67;2.03;;;;;;;-1.52;100.00;100451.69;5047657;28;20447;-69
2023/11/27 05:39:05;;;;;;;7.57;3.83;;;;;;;-2.00;100.00;100356.53;5047737;28;20122;-69
2023/11/27 05:41:31;;;;;;;10.97;6.30;;;;;;;-1.39;100.00;100462.84;5047758;28;20073;-69
2023/11/27 05:43:57;;;;;;;9.90;5.47;;;;;;;-1.30;100.00;100476.25;5033590;28;20479;-70
2023/11/27 05:46:22;;;;;;;8.00;4.87;;;;;;;-1.31;100.00;100459.28;5030119;28;20116;-71
2023/11/27 05:48:48;;;;;;;4.43;2.53;;;;;;;-1.44;100.00;100429.53;5029764;28;20026;-70
2023/11/27 05:51:15;;;;;;;4.37;2.73;;;;;;;-1.03;100.00;100485.28;5044256;28;20045;-69
2023/11/27 05:53:41;;;;;;;3.63;2.33;;;;;;;-1.11;100.00;100496.41;5030618;28;20021;-69
2023/11/27 05:56:08;;;;;;;4.00;2.13;;;;;;;-1.07;100.00;100500.09;5029764;28;20475;-67
2023/11/27 05:58:33;;;;;;;4.17;2.53;;;;;;;-0.99;100.00;100507.59;5044098;28;20045;-70
2023/11/27 06:00:59;;;;;;;3.80;2.53;;;;;;;-1.15;100.00;100495.31;5029878;28;20087;-69
2023/11/27 06:03:24;;;;;;;5.03;2.77;;;;;;;-0.99;100.00;100505.06;5029523;28;20028;-71
2023/11/27 06:05:52;;;;;;;11.63;5.17;;;;;;;-0.93;100.00;100506.34;5029355;28;20566;-69
2023/11/27 06:08:18;;;;;;;12.50;4.10;;;;;;;-0.83;100.00;100508.88;5029662;28;20072;-68
2023/11/27 06:10:45;;;;;;;8.20;3.10;;;;;;;-0.74;100.00;100521.44;5030058;28;20482;-70
2023/11/27 06:13:12;;;;;;;4.63;2.40;;;;;;;-0.69;100.00;100526.09;5030421;28;20116;-69
2023/11/27 06:15:38;;;;;;;3.03;1.90;;;;;;;-0.62;100.00;100519.91;5030295;28;20068;-70
2023/11/27 06:18:05;;;;;;;2.83;2.10;;;;;;;-1.52;100.00;100365.59;5045312;28;20510;-69
2023/11/27 06:20:30;;;;;;;3.50;1.93;;;;;;;-0.59;100.00;100527.75;5030569;28;20029;-70
2023/11/27 06:22:57;;;;;;;2.80;2.03;;;;;;;-0.55;100.00;100532.34;5034172;28;20087;-69
2023/11/27 06:25:23;;;;;;;3.30;2.07;;;;;;;-0.55;100.00;100528.88;5032529;28;20033;-67
2023/11/27 06:27:49;;;;;;;4.23;2.37;;;;;;;-1.01;100.00;100453.38;5033659;28;20044;-69
2023/11/27 06:30:15;;;;;;;4.60;2.47;;;;;;;-0.63;100.00;100513.06;5029748;28;20026;-71
2023/11/27 06:32:40;;;;;;;6.90;3.07;;;;;;;-0.51;100.00;100530.94;5015835;28;20030;-69
2023/11/27 06:35:07;;;;;;;5.17;2.23;;;;;;;-0.40;100.00;100541.94;5013554;28;20077;-71
2023/11/27 06:37:33;;;;;;;6.27;2.53;;;;;;;-0.47;100.00;100539.66;5013721;28;20026;-72
2023/11/27 06:39:58;;;;;;;3.30;2.23;;;;;;;-0.41;100.00;100545.22;5013913;28;20037;-67
2023/11/27 06:42:24;;;;;;;5.33;2.20;;;;;;;-0.30;100.00;100559.69;5023779;28;20030;-67
2023/11/27 06:44:50;;;;;;;4.53;2.13;;;;;;;-0.19;100.00;100556.41;5031248;28;20032;-69
2023/11/27 06:47:16;;;;;;;10.00;2.33;;;;;;;-0.13;100.00;100567.78;5031538;28;20033;-72
2023/11/27 06:49:43;;;;;;;1.93;1.53;;;;;;;-0.50;100.00;100505.69;5030251;28;20018;-72
2023/11/27 06:52:09;;;;;;;3.10;1.70;;;;;;;-0.07;100.00;100568.28;5032760;28;20029;-70
2023/11/27 06:54:34;;;;;;;2.80;1.93;;;;;;;0.02;100.00;100586.78;5033059;28;20033;-70
2023/11/27 06:57:01;;;;;;;5.37;1.90;;;;;;;0.11;100.00;100592.63;5032362;28;20494;-72
2023/11/27 06:59:27;;;;;;;4.90;2.22;;;;;;;0.20;100.00;100591.56;5032570;28;20037;-68
2023/11/27 07:01:52;;;;;;;4.50;2.20;;;;;;;0.29;100.00;100600.81;5032880;28;20021;-69
2023/11/27 07:04:19;;;;;;;5.50;2.72;;;;;;;0.36;100.00;100596.22;5032281;28;20033;-71
2023/11/27 07:06:45;;;;;;;5.75;2.30;;;;;;;-0.08;100.00;100518.31;5047925;28;20054;-74
2023/11/27 07:09:11;;;;;;;4.72;2.47;;;;;;;0.50;100.00;100605.84;5032698;28;20099;-72
2023/11/27 07:11:36;;;;;;;4.93;2.75;;;;;;;0.53;100.00;100595.91;5032579;28;20030;-69
2023/11/27 07:14:03;;;;;;;4.00;1.88;;;;;;;0.56;100.00;100615.59;5033011;28;20029;-70
2023/11/27 07:16:29;;;;;;;6.97;2.55;;;;;;;0.38;100.00;100580.34;5032900;28;20029;-70
2023/11/27 07:18:58;;;;;;;5.50;2.38;;;;;;;0.57;100.00;100605.53;5033278;28;20443;-72
2023/11/27 07:21:25;;;;;;;2.35;2.15;;;;;;;0.07;100.00;100505.94;5032863;28;20044;-69
2023/11/27 07:23:53;;;;;;;3.78;1.98;;;;;;;0.54;100.00;100599.34;5032522;28;20083;-69
2023/11/27 07:26:24;;;;;;;3.72;2.25;;;;;;;0.69;100.00;100609.84;5032667;28;20025;-68
2023/11/27 07:28:50;;;;;;;3.50;1.92;;;;;;;0.82;100.00;100606.59;5032791;28;20082;-69
2023/11/27 07:31:16;;;;;;;2.72;1.80;;;;;;;0.76;100.00;100604.44;5032023;28;20025;-69
2023/11/27 07:33:44;;;;;;;5.90;1.92;;;;;;;0.73;100.00;100581.34;5032618;28;20022;-69
2023/11/27 07:36:10;;;;;;;6.75;2.78;;;;;;;0.87;100.00;100607.84;5032418;28;20467;-69
2023/11/27 07:38:36;;;;;;;15.27;5.22;;;;;;;0.57;100.00;100542.03;5032408;28;20071;-68
2023/11/27 07:41:05;;;;;;;19.52;10.30;;;;;;;1.04;100.00;100617.66;5032139;28;20511;-69
2023/11/27 07:43:31;;;;;;;5.47;2.80;;;;;;;1.05;100.00;100618.56;5032184;28;20037;-68
2023/11/27 07:45:57;;;;;;;3.70;2.33;;;;;;;0.72;100.00;100537.25;5031878;28;20119;-69
2023/11/27 07:48:22;;;;;;;3.55;2.45;;;;;;;1.28;100.00;100617.75;5032347;28;20076;-67
2023/11/27 07:50:51;;;;;;;5.93;2.10;;;;;;;0.75;100.00;100531.53;5032267;28;20423;-68
2023/11/27 07:53:20;;;;;;;1.87;1.47;;;;;;;0.86;100.00;100532.34;5032259;28;20033;-67
2023/11/27 07:55:46;;;;;;;21.50;11.45;;;;;;;0.80;100.00;100546.38;5031687;28;20026;-72
2023/11/27 07:58:14;;;;;;;4.43;3.15;;;;;;;1.43;100.00;100624.03;5032029;28;20022;-69
2023/11/27 08:00:40;;;;;;;11.23;8.27;;;;;;;1.65;100.00;100634.94;5032211;28;20075;-69
2023/11/27 08:03:06;;;;;;;3.20;2.00;;;;;;;1.59;100.00;100633.69;5031882;28;20026;-68
2023/11/27 08:05:31;;;;;;;3.08;1.90;;;;;;;1.63;100.00;100634.81;5031707;28;20480;-68
2023/11/27 08:07:57;;;;;;;5.13;2.20;;;;;;;1.71;100.00;100631.19;5031754;28;20464;-69
2023/11/27 08:10:23;;;;;;;3.92;1.90;;;;;;;1.80;100.00;100630.13;5031864;28;20116;-69
2023/11/27 08:12:49;;;;;;;3.40;2.00;;;;;;;1.67;100.00;100623.22;5031406;28;20021;-69
2023/11/27 08:15:18;;;;;;;2.90;1.80;;;;;;;1.82;100.00;100636.19;5031890;28;20413;-68
2023/11/27 08:17:49;;;;;;;7.07;3.00;;;;;;;1.85;100.00;100639.84;5031777;28;20026;-68
2023/11/27 08:20:17;;;;;;;8.13;5.47;;;;;;;1.90;100.00;100636.00;5031944;28;20055;-67
2023/11/27 08:22:43;;;;;;;19.13;14.88;;;;;;;2.16;100.00;100634.50;5031785;28;20018;-70
2023/11/27 08:25:14;;;;;;;31.67;19.50;;;;;;;2.21;100.00;100622.09;5029265;28;20064;-69
2023/11/27 08:27:42;;;;;;;6.38;4.95;;;;;;;2.32;100.00;100643.22;5031221;28;20487;-69
2023/11/27 08:30:11;;;;;;;4.10;2.13;;;;;;;2.10;100.00;100627.28;5031559;28;20021;-70
2023/11/27 08:32:36;;;;;;;3.30;2.47;;;;;;;2.29;100.00;100637.94;5031261;28;20407;-69
2023/11/27 08:35:04;;;;;;;4.95;2.13;;;;;;;2.06;100.00;100604.91;5031468;28;20028;-73
2023/11/27 08:37:35;;;;;;;3.55;1.77;;;;;;;2.24;100.00;100642.69;5031246;28;20116;-69
2023/11/27 08:40:06;;;;;;;4.28;2.45;;;;;;;2.34;100.00;100650.22;5031048;28;20490;-69
2023/11/27 08:42:34;;;;;;;3.90;2.00;;;;;;;2.59;100.00;100644.34;5031282;28;20083;-69
2023/11/27 08:45:10;;;;;;;2.83;1.95;;;;;;;2.67;100.00;100658.53;5030740;28;20026;-68
2023/11/27 08:47:38;;;;;;;3.08;1.98;;;;;;;2.52;100.00;100652.34;5031193;28;20064;-68
2023/11/27 08:50:05;;;;;;;2.60;1.80;;;;;;;2.45;100.00;100645.91;5031229;28;20100;-75
2023/11/27 08:52:31;;;;;;;2.00;1.50;;;;;;;2.44;100.00;100646.69;5030832;28;20163;-69
2023/11/27 08:54:57;;;;;;;4.13;2.42;;;;;;;2.59;100.00;100614.66;5031221;28;20532;-69
2023/11/27 08:57:23;;;;;;;3.53;2.28;;;;;;;2.87;100.00;100633.56;5030956;28;20087;-69
2023/11/27 08:59:49;;;;;;;2.97;1.98;;;;;;;2.95;100.00;100645.19;5031143;28;20025;-69
2023/11/27 09:02:16;;;;;;;3.28;1.95;;;;;;;2.71;100.00;100640.13;5030904;28;20031;-69
2023/11/27 09:04:41;;;;;;;3.13;2.00;;;;;;;2.83;100.00;100627.38;5030732;28;20026;-69
2023/11/27 09:07:07;;;;;;;3.38;1.90;;;;;;;2.78;100.00;100620.16;5030928;28;20049;-68
2023/11/27 09:09:33;;;;;;;2.83;1.77;;;;;;;2.88;100.00;100643.88;5030860;28;20416;-69
2023/11/27 09:11:59;;;;;;;2.40;1.30;;;;;;;2.98;100.00;100636.84;5030610;28;20036;-67
2023/11/27 09:14:25;;;;;;;1.80;1.50;;;;;;;3.13;100.00;100639.59;5030791;28;20029;-69
2023/11/27 09:16:51;;;;;;;2.67;1.80;;;;;;;2.92;100.00;100628.00;5030442;28;20112;-69
2023/11/27 09:19:16;;;;;;;2.90;1.98;;;;;;;3.29;100.00;100644.09;5030640;28;20104;-69
2023/11/27 09:21:42;;;;;;;3.25;2.13;;;;;;;2.73;100.00;100567.19;5030262;28;20399;-68
2023/11/27 09:24:08;;;;;;;2.90;1.92;;;;;;;3.31;100.00;100637.44;5030689;28;20030;-69
2023/11/27 09:26:34;;;;;;;4.13;2.10;;;;;;;3.46;100.00;100638.47;5030353;28;20033;-72
2023/11/27 09:28:59;;;;;;;3.33;2.25;;;;;;;3.38;100.00;100630.31;5028349;28;20081;-68
2023/11/27 09:31:26;;;;;;;3.80;2.20;;;;;;;3.57;100.00;100631.56;5030504;28;20025;-68
2023/11/27 09:33:52;;;;;;;3.35;2.35;;;;;;;3.67;100.00;100640.72;5030395;28;20026;-67
2023/11/27 09:36:18;;;;;;;2.70;2.20;;;;;;;3.38;100.00;100568.19;5030309;28;20037;-69
2023/11/27 09:38:43;;;;;;;5.97;2.40;;;;;;;3.84;100.00;100629.09;5030283;28;20104;-68
2023/11/27 09:41:10;;;;;;;5.90;4.80;;;;;;;3.65;98.41;100632.06;5030017;28;20107;-68
2023/11/27 09:43:37;;;;;;;2.90;2.10;;;;;;;3.83;99.58;100634.97;5030214;28;20072;-68
2023/11/27 09:46:06;;;;;;;3.35;2.15;;;;;;;3.81;98.59;100627.19;5030057;28;20078;-68
2023/11/27 09:48:39;;;;;;;4.22;2.08;;;;;;;3.89;98.78;100630.28;5030151;28;20088;-67
2023/11/27 09:51:11;;;;;;;3.35;1.55;;;;;;;3.86;97.68;100625.84;5029167;28;20029;-67
2023/11/27 09:53:43;;;;;;;3.47;1.60;;;;;;;3.76;97.40;100609.81;5029910;28;20530;-66
2023/11/27 09:56:10;;;;;;;2.13;1.83;;;;;;;4.04;98.68;100628.72;5062325;28;20052;-69
2023/11/27 09:58:42;;;;;;;2.00;1.38;;;;;;;4.06;95.54;100610.94;5034020;28;20033;-66
2023/11/27 10:01:10;;;;;;;2.72;1.40;;;;;;;3.97;96.20;100620.56;5031521;28;20021;-71
2023/11/27 10:03:38;;;;;;;5.22;1.73;;;;;;;3.84;96.06;100613.78;5033562;28;20770;-70
2023/11/27 10:06:06;;;;;;;7.28;1.80;;;;;;;3.70;94.42;100613.72;5030856;28;20076;-69
2023/11/27 10:08:32;;;;;;;1.45;0.88;;;;;;;3.66;95.28;100609.19;5033572;28;20030;-68
2023/11/27 10:10:57;;;;;;;3.47;2.03;;;;;;;3.79;94.95;100610.91;5033910;28;20033;-69
2023/11/27 10:13:35;;;;;;;1.90;1.40;;;;;;;3.81;92.86;100605.88;5033803;28;20163;-68
2023/11/27 10:16:05;;;;;;;3.03;1.30;;;;;;;3.65;94.59;100510.41;5033193;28;20075;-69
2023/11/27 10:18:32;;;;;;;2.30;1.50;;;;;;;4.44;95.40;100594.63;5033260;28;20480;-69
2023/11/27 10:20:58;;;;;;;3.08;1.73;;;;;;;4.11;92.98;100544.81;5033934;28;20030;-69
2023/11/27 10:23:27;;;;;;;4.97;1.60;;;;;;;4.24;92.89;100580.59;5033867;28;20026;-68
2023/11/27 10:26:00;;;;;;;3.53;1.77;;;;;;;4.05;92.16;100579.41;5032832;28;20022;-73
2023/11/27 10:28:42;;;;;;;5.38;1.20;;;;;;;4.27;92.64;100592.69;5033859;28;20282;-69
2023/11/27 10:31:08;;;;;;;2.90;1.55;;;;;;;3.50;90.89;100524.72;5033853;28;20036;-69
2023/11/27 10:33:36;;;;;;;2.55;1.70;;;;;;;4.21;91.56;100611.03;5033570;28;20495;-68
2023/11/27 10:36:05;;;;;;;2.58;1.50;;;;;;;4.21;91.80;100608.50;5033863;28;20029;-68
2023/11/27 10:38:30;;;;;;;1.88;1.35;;;;;;;4.24;92.57;100603.59;5033424;28;20128;-68
2023/11/27 10:40:58;;;;;;;3.83;1.90;;;;;;;4.31;89.88;100612.53;5033162;28;20480;-68
2023/11/27 10:43:25;;;;;;;1.35;1.00;;;;;;;4.18;89.80;100613.41;5032721;28;20529;-69
2023/11/27 10:45:52;;;;;;;3.25;1.60;;;;;;;3.73;89.88;100542.44;5033337;28;20104;-68
2023/11/27 10:48:20;;;;;;;2.22;1.40;;;;;;;3.79;88.60;100531.75;5015413;28;20037;-69
2023/11/27 10:50:48;;;;;;;2.15;1.10;;;;;;;3.99;86.70;100612.22;5012188;28;20037;-71
2023/11/27 10:53:15;;;;;;;2.88;1.00;;;;;;;4.20;87.86;100606.75;5032619;28;20025;-69
2023/11/27 10:55:43;;;;;;;2.70;1.15;;;;;;;4.20;87.51;100607.63;5032844;28;20510;-71
2023/11/27 10:58:11;;;;;;;2.45;1.30;;;;;;;3.68;88.19;100525.94;5025088;28;20544;-68
2023/11/27 11:00:46;;;;;;;3.22;1.85;;;;;;;4.52;88.44;100592.56;5027510;28;20426;-67
2023/11/27 11:03:14;;;;;;;1.95;1.42;;;;;;;4.54;86.97;100589.31;5020066;28;20037;-67
2023/11/27 11:05:50;;;;;;;30.10;15.90;;;;;;;4.48;89.28;100591.47;5029710;28;20667;-68
2023/11/27 11:08:22;;;;;;;3.97;1.25;;;;;;;4.48;85.20;100585.50;5022595;28;20038;-68
2023/11/27 11:10:48;;;;;;;1.70;1.40;;;;;;;4.60;86.18;100593.94;5075893;28;20462;-66
2023/11/27 11:13:17;;;;;;;1.40;1.15;;;;;;;4.46;85.81;100597.28;5044243;28;20033;-69
2023/11/27 11:16:08;;;;;;;1.58;1.20;;;;;;;4.47;84.91;100596.50;5032971;28;20025;-68
2023/11/27 11:18:43;;;;;;;2.00;1.33;;;;;;;4.51;85.44;100581.47;5032926;28;20021;-68